Time;durP1;ratioP1;P1;durP2;ratioP2;P2;SDS_P1;SDS_P2;PMS_P1;PMS_P2;Temp;Humidity;BMP_temperature;BMP_pressure;BME280_temperature;BME280_humidity;BME280_pressure;Samples;Min_cycle;Max_cycle;Signal;HPM_P1;HPM_P2
2022/01/06 05:30:29;;;;;;;;;21.00;13.00;;;;;4.28;67.42;101674.69;5077794;27;45572;-72
2022/01/06 05:32:55;;;;;;;;;16.00;13.75;;;;;4.41;67.37;101710.94;5056491;28;46020;-75
2022/01/06 05:35:20;;;;;;;;;12.00;9.25;;;;;4.40;67.17;101712.69;5057432;28;45307;-73
2022/01/06 05:37:46;;;;;;;;;15.25;15.00;;;;;4.31;68.14;101695.94;5057285;28;45559;-73
2022/01/06 05:40:13;;;;;;;;;15.50;15.50;;;;;4.34;67.73;101706.53;5057009;28;46099;-73
2022/01/06 05:42:38;;;;;;;;;20.00;16.75;;;;;4.43;67.76;101717.09;5057044;28;45703;-75
2022/01/06 05:45:04;;;;;;;;;19.50;17.25;;;;;4.44;67.65;101719.75;5056984;28;45335;-74
2022/01/06 05:47:30;;;;;;;;;14.25;10.75;;;;;4.47;67.01;101717.09;5056536;28;45408;-74
2022/01/06 05:49:55;;;;;;;;;24.75;20.25;;;;;4.42;67.60;101715.34;5056536;28;45326;-74
2022/01/06 05:52:20;;;;;;;;;17.00;14.00;;;;;4.43;67.30;101728.59;5056010;28;45470;-74
2022/01/06 05:54:46;;;;;;;;;12.00;12.00;;;;;4.40;67.59;101722.44;5055048;28;45485;-73
2022/01/06 05:57:13;;;;;;;;;19.50;17.25;;;;;4.38;67.74;101713.59;5056107;28;45500;-74
2022/01/06 05:59:38;;;;;;;;;17.00;15.75;;;;;4.42;67.35;101726.81;5055736;28;45347;-74
2022/01/06 06:02:05;;;;;;;;;20.50;16.00;;;;;4.41;67.46;101714.47;5056036;28;46088;-73
2022/01/06 06:04:30;;;;;;;;;17.00;14.25;;;;;4.50;67.35;101734.78;5056351;28;45453;-73
2022/01/06 06:06:56;;;;;;;;;19.50;16.00;;;;;4.48;66.92;101733.91;5056987;28;45284;-73
2022/01/06 06:09:21;;;;;;;;;18.00;13.00;;;;;4.41;67.64;101734.81;5056495;28;45410;-72
2022/01/06 06:11:46;;;;;;;;;18.00;14.50;;;;;4.39;67.80;101748.09;5056347;28;45897;-74
2022/01/06 06:14:12;;;;;;;;;19.75;15.25;;;;;4.43;67.38;101744.53;5056476;28;45342;-74
2022/01/06 06:16:37;;;;;;;;;18.75;16.50;;;;;4.46;67.26;101748.94;5056890;28;45478;-74
2022/01/06 06:19:02;;;;;;;;;21.50;17.75;;;;;4.46;67.46;101756.91;5057262;28;45489;-75
2022/01/06 06:21:28;;;;;;;;;18.50;16.00;;;;;4.22;67.58;101711.91;5056507;28;45976;-76
2022/01/06 06:23:53;;;;;;;;;18.00;15.75;;;;;4.41;67.38;101742.78;5056459;28;45308;-75
2022/01/06 06:26:19;;;;;;;;;18.50;17.00;;;;;4.41;67.41;101734.81;5038397;28;45261;-77
2022/01/06 06:28:44;;;;;;;;;21.00;16.25;;;;;4.43;67.69;101739.22;5056873;28;45252;-78
2022/01/06 06:31:10;;;;;;;;;17.00;17.00;;;;;4.47;67.33;101761.34;5066330;27;46280;-77
2022/01/06 06:33:35;;;;;;;;;18.25;15.00;;;;;4.49;67.52;101765.75;5057058;28;45496;-77
2022/01/06 06:36:00;;;;;;;;;17.00;16.50;;;;;4.51;67.41;101769.25;5056663;28;45334;-77
2022/01/06 06:38:26;;;;;;;;;18.00;14.75;;;;;4.42;67.47;101764.00;5054574;28;45405;-73
2022/01/06 06:40:51;;;;;;;;;19.50;15.75;;;;;4.45;67.40;101774.63;5056210;28;45370;-77
2022/01/06 06:43:17;;;;;;;;;20.25;13.00;;;;;4.41;66.96;101772.88;5056255;28;45339;-74
2022/01/06 06:45:43;;;;;;;;;23.50;17.00;;;;;4.38;67.38;101783.50;5056202;28;45230;-76
2022/01/06 06:48:09;;;;;;;;;16.50;16.50;;;;;4.41;67.49;101786.16;5037874;28;45792;-74
2022/01/06 06:50:35;;;;;;;;;13.00;13.00;;;;;4.39;66.88;101777.31;5055797;28;45464;-80
2022/01/06 06:53:02;;;;;;;;;18.75;16.50;;;;;4.48;67.48;101782.56;5056297;28;45435;-73
2022/01/06 06:55:27;;;;;;;;;18.25;14.50;;;;;4.57;67.02;101773.69;5055871;28;45394;-74
2022/01/06 06:57:53;;;;;;;;;17.00;13.00;;;;;4.64;66.78;101772.75;5056182;28;45463;-74
2022/01/06 07:00:18;;;;;;;;;16.75;16.25;;;;;4.69;67.09;101773.59;5055738;28;46282;-74
2022/01/06 07:02:43;;;;;;;;;18.25;15.75;;;;;4.54;66.43;101745.38;5055507;28;45455;-74
2022/01/06 07:05:09;;;;;;;;;17.25;16.00;;;;;4.79;66.86;101783.28;5055757;28;45212;-74
2022/01/06 07:07:35;;;;;;;;;13.25;13.00;;;;;4.63;67.06;101752.41;5055474;28;45518;-73
2022/01/06 07:10:01;;;;;;;;;14.50;14.50;;;;;4.88;66.30;101780.59;5044731;28;45508;-72
2022/01/06 07:12:27;;;;;;;;;20.50;17.00;;;;;4.86;66.31;101771.72;5050860;28;45365;-71
2022/01/06 07:14:52;;;;;;;;;18.50;14.25;;;;;4.93;65.84;101784.09;5053800;28;45461;-72
2022/01/06 07:17:18;;;;;;;;;15.75;13.75;;;;;4.98;65.60;101793.81;5052412;28;45288;-72
2022/01/06 07:19:43;;;;;;;;;25.50;17.50;;;;;4.93;65.74;101786.75;5053596;28;46449;-71
2022/01/06 07:22:08;;;;;;;;;13.75;11.75;;;;;5.00;65.90;101789.38;5052426;28;45655;-71
2022/01/06 07:24:36;;;;;;;;;28.50;18.50;;;;;5.06;65.75;101789.34;5053582;28;45485;-72
2022/01/06 07:27:02;;;;;;;;;18.75;14.25;;;;;5.01;65.43;101791.16;5053282;28;45445;-71
2022/01/06 07:29:28;;;;;;;;;17.50;13.00;;;;;4.96;65.65;101783.19;5052880;28;46380;-71
2022/01/06 07:31:53;;;;;;;;;16.00;15.00;;;;;4.96;65.49;101783.19;5061616;28;45399;-70
2022/01/06 07:34:19;;;;;;;;;20.00;13.25;;;;;5.02;65.17;101790.25;5053879;28;45445;-71
2022/01/06 07:36:45;;;;;;;;;19.00;14.25;;;;;4.97;65.21;101786.72;5053043;28;45925;-74
2022/01/06 07:39:10;;;;;;;;;18.00;13.00;;;;;4.97;65.64;101786.72;5047575;28;45350;-72
2022/01/06 07:41:36;;;;;;;;;20.25;14.50;;;;;4.96;65.81;101777.88;5053323;28;45691;-73
2022/01/06 07:44:06;;;;;;;;;21.25;16.00;;;;;5.00;65.43;101784.94;5052660;28;45223;-74
2022/01/06 07:46:31;;;;;;;;;13.00;10.50;;;;;5.12;65.21;101805.22;5030869;28;46334;-70
2022/01/06 07:48:57;;;;;;;;;19.00;14.50;;;;;4.92;65.20;101779.69;5053992;28;46024;-71
2022/01/06 07:51:24;;;;;;;;;19.50;14.25;;;;;5.00;65.85;101805.31;5054903;28;45376;-73
2022/01/06 07:53:50;;;;;;;;;20.00;13.75;;;;;4.87;65.43;101802.72;5050847;28;45513;-71
2022/01/06 07:56:16;;;;;;;;;19.00;14.00;;;;;4.92;65.58;101816.88;5055214;28;45841;-70
2022/01/06 07:58:41;;;;;;;;;17.00;14.00;;;;;4.85;66.13;101823.09;5054829;28;46124;-73
2022/01/06 08:01:09;;;;;;;;;18.00;15.50;;;;;4.93;66.04;101808.00;5055218;28;45843;-73
2022/01/06 08:03:34;;;;;;;;;19.00;15.75;;;;;5.02;66.27;101820.34;5053636;28;45370;-71
2022/01/06 08:06:00;;;;;;;;;22.00;18.25;;;;;5.03;65.72;101811.50;5054909;28;45412;-72
2022/01/06 08:08:25;;;;;;;;;15.00;15.00;;;;;4.76;65.76;101782.44;5053171;28;45403;-73
2022/01/06 08:10:52;;;;;;;;;22.00;16.50;;;;;4.87;65.94;101792.09;5055485;28;45434;-73
2022/01/06 08:13:17;;;;;;;;;24.50;21.00;;;;;4.94;65.87;101804.44;5036869;28;45478;-70
2022/01/06 08:15:43;;;;;;;;;25.00;17.00;;;;;4.96;66.00;101804.44;5036617;28;46751;-71
2022/01/06 08:18:08;;;;;;;;;21.50;15.75;;;;;4.90;66.13;101812.47;5036194;28;47139;-70
2022/01/06 08:20:35;;;;;;;;;21.00;20.50;;;;;4.85;66.57;101812.47;5054981;28;45366;-75
2022/01/06 08:23:02;;;;;;;;;19.00;15.25;;;;;4.86;66.55;101816.91;5054634;28;45331;-71
2022/01/06 08:25:28;;;;;;;;;20.75;19.00;;;;;4.75;66.47;101809.91;5054675;28;45357;-73
2022/01/06 08:27:53;;;;;;;;;22.75;15.25;;;;;4.76;66.09;101817.88;5036509;28;47266;-70
2022/01/06 08:30:18;;;;;;;;;21.25;16.50;;;;;4.80;65.99;101824.03;5057354;28;45497;-71
2022/01/06 08:32:44;;;;;;;;;19.00;17.50;;;;;4.79;66.44;101825.78;5060265;28;45720;-73
2022/01/06 08:35:10;;;;;;;;;21.25;17.25;;;;;4.87;66.47;101821.31;5053915;28;46051;-73
2022/01/06 08:37:35;;;;;;;;;26.50;15.25;;;;;4.91;66.19;101812.47;5053697;28;46171;-75
2022/01/06 08:40:02;;;;;;;;;20.75;20.00;;;;;4.81;66.06;101805.44;5053970;28;45534;-74
2022/01/06 08:42:27;;;;;;;;;21.50;16.00;;;;;4.85;65.91;101811.59;5054035;28;45287;-72
2022/01/06 08:44:52;;;;;;;;;20.75;17.00;;;;;4.82;66.14;101824.91;5054276;28;45430;-73
2022/01/06 08:47:18;;;;;;;;;29.50;17.25;;;;;4.76;66.71;101828.50;5053534;28;46042;-73
2022/01/06 08:49:43;;;;;;;;;23.25;16.75;;;;;4.65;66.60;101806.41;5054564;28;45258;-72
2022/01/06 08:52:09;;;;;;;;;27.50;23.00;;;;;4.63;66.57;101794.00;5053998;28;45738;-75
2022/01/06 08:54:34;;;;;;;;;22.00;18.00;;;;;4.84;66.42;101832.00;5053889;28;45529;-73
2022/01/06 08:57:00;;;;;;;;;23.25;19.25;;;;;4.91;66.46;101823.09;5036102;28;46283;-72
2022/01/06 08:59:26;;;;;;;;;22.50;18.00;;;;;4.92;66.15;101823.97;5054347;28;45370;-75
2022/01/06 09:01:52;;;;;;;;;28.25;21.00;;;;;5.09;66.58;101831.84;5055453;28;45429;-74
2022/01/06 09:04:20;;;;;;;;;20.50;18.00;;;;;5.20;65.85;101836.19;5056904;28;45442;-75
2022/01/06 09:06:47;;;;;;;;;22.50;19.50;;;;;5.23;65.43;101838.84;5039705;28;47291;-73
2022/01/06 09:09:12;;;;;;;;;20.50;14.50;;;;;5.21;65.62;101834.41;5057439;28;45310;-75
2022/01/06 09:11:37;;;;;;;;;25.50;21.00;;;;;5.14;65.54;101835.34;5057564;28;45565;-72
2022/01/06 09:14:03;;;;;;;;;23.50;20.75;;;;;5.11;65.80;101820.28;5057736;28;45423;-74
2022/01/06 09:16:28;;;;;;;;;22.25;17.00;;;;;5.32;65.79;101837.91;5057076;28;46028;-74
2022/01/06 09:18:53;;;;;;;;;18.75;14.75;;;;;5.37;65.30;101845.81;5038742;28;45843;-73
2022/01/06 09:21:22;;;;;;;;;22.50;19.00;;;;;5.40;65.43;101841.38;5057281;28;46019;-70
2022/01/06 09:23:49;;;;;;;;;25.00;14.25;;;;;5.43;65.39;101849.34;5056909;28;45388;-71
2022/01/06 09:26:14;;;;;;;;;23.75;18.25;;;;;5.32;64.90;101828.13;5057017;28;46547;-71
2022/01/06 09:28:40;;;;;;;;;15.00;15.00;;;;;5.45;65.13;101844.88;5057550;28;45335;-71
2022/01/06 09:31:05;;;;;;;;;22.25;20.00;;;;;5.45;64.95;101844.00;5066434;28;45427;-71
2022/01/06 09:33:30;;;;;;;;;25.00;16.75;;;;;5.53;64.54;101850.16;5056890;28;45382;-69
2022/01/06 09:35:56;;;;;;;;;19.50;14.75;;;;;5.49;64.24;101853.72;5056501;28;45902;-70
2022/01/06 09:38:22;;;;;;;;;19.00;15.00;;;;;5.56;64.21;101855.44;5056505;28;45369;-71
2022/01/06 09:40:47;;;;;;;;;22.00;17.25;;;;;5.57;64.25;101842.13;5039192;28;45498;-70
2022/01/06 09:43:14;;;;;;;;;17.50;17.50;;;;;5.59;64.21;101852.78;5058922;28;45831;-71
2022/01/06 09:45:41;;;;;;;;;24.25;15.25;;;;;5.64;64.61;101851.81;5038591;28;46844;-71
2022/01/06 09:48:08;;;;;;;;;19.75;16.25;;;;;5.63;64.26;101850.06;5055126;28;45428;-71
2022/01/06 09:50:35;;;;;;;;;12.25;12.25;;;;;5.69;64.03;101857.13;5057128;28;45360;-70
2022/01/06 09:53:00;;;;;;;;;19.25;15.50;;;;;5.70;64.41;101849.09;5056905;28;45508;-69
2022/01/06 09:55:26;;;;;;;;;17.00;13.50;;;;;5.78;64.00;101856.16;5056635;28;46200;-70
2022/01/06 09:58:01;;;;;;;;;16.50;15.00;;;;;5.85;63.75;101877.38;5056822;28;45376;-71
2022/01/06 10:00:28;;;;;;;;;17.75;13.00;;;;;5.87;63.49;101862.25;5056419;28;45371;-71
2022/01/06 10:02:57;;;;;;;;;21.25;17.25;;;;;5.95;63.23;101867.59;5056490;28;45581;-70
2022/01/06 10:05:24;;;;;;;;;17.50;14.50;;;;;6.03;63.10;101863.06;5056225;28;46227;-71
2022/01/06 10:07:49;;;;;;;;;17.50;16.00;;;;;6.16;63.41;101870.03;5057253;28;45481;-74
2022/01/06 10:10:15;;;;;;;;;17.75;14.75;;;;;6.23;62.73;101863.75;5056333;28;45657;-72
2022/01/06 10:12:42;;;;;;;;;15.25;13.75;;;;;6.30;62.23;101868.09;5055372;28;45581;-73
2022/01/06 10:15:21;;;;;;;;;19.00;15.25;;;;;6.28;62.40;101864.59;5056723;28;47144;-73
2022/01/06 10:17:47;;;;;;;;;18.25;15.25;;;;;6.34;62.88;101872.50;5056539;28;45300;-72
2022/01/06 10:20:15;;;;;;;;;19.75;18.25;;;;;6.50;62.65;101881.22;5056494;28;45386;-72
2022/01/06 10:22:46;;;;;;;;;30.25;27.75;;;;;6.63;62.94;101877.53;5038359;28;45566;-70
2022/01/06 10:25:11;;;;;;;;;19.25;17.50;;;;;6.64;62.02;101867.72;5055871;28;46195;-71
2022/01/06 10:27:37;;;;;;;;;20.25;14.75;;;;;6.64;62.49;101871.28;5055855;28;45366;-71
2022/01/06 10:30:06;;;;;;;;;24.75;16.50;;;;;6.65;62.31;101859.72;5056840;28;45374;-72
2022/01/06 10:32:32;;;;;;;;;18.25;17.50;;;;;6.69;62.16;101860.56;5063276;28;45500;-74
2022/01/06 10:35:02;;;;;;;;;22.25;15.75;;;;;6.71;61.92;101861.44;5059020;28;46408;-71
2022/01/06 10:37:38;;;;;;;;;16.25;13.25;;;;;6.77;60.85;101875.56;5058260;28;45410;-73
2022/01/06 10:40:17;;;;;;;;;20.00;14.00;;;;;6.76;61.93;101868.47;5038130;28;45652;-70
2022/01/06 10:42:48;;;;;;;;;18.50;15.00;;;;;6.81;61.52;101861.28;5055638;28;45545;-75
2022/01/06 10:45:22;;;;;;;;;14.75;12.00;;;;;6.91;61.34;101870.06;5037694;28;48242;-69
2022/01/06 10:47:50;;;;;;;;;18.25;14.25;;;;;6.91;61.26;101866.50;5055581;28;45177;-73
2022/01/06 10:50:18;;;;;;;;;18.25;15.00;;;;;6.90;61.59;101862.06;5056162;28;45385;-73
2022/01/06 10:52:58;;;;;;;;;19.50;14.00;;;;;6.97;61.89;101853.13;5055569;28;45334;-75
2022/01/06 10:55:32;;;;;;;;;17.50;12.75;;;;;7.01;60.99;101844.16;5037887;28;47208;-76
2022/01/06 10:58:09;;;;;;;;;15.50;12.00;;;;;7.16;60.47;101854.59;5055979;28;45286;-75
2022/01/06 11:00:46;;;;;;;;;12.75;10.50;;;;;7.25;60.47;101840.25;5055388;28;45452;-72
2022/01/06 11:03:19;;;;;;;;;16.50;12.75;;;;;7.32;59.41;101841.91;5056388;28;46173;-72
2022/01/06 11:06:05;;;;;;;;;16.00;13.50;;;;;7.29;59.99;101840.22;5037457;28;47298;-75
2022/01/06 11:08:33;;;;;;;;;12.00;10.25;;;;;7.35;58.38;101836.56;5036451;28;45497;-75
2022/01/06 11:13:38;;;;;;;;;11.25;9.75;;;;;7.45;58.74;101825.72;5055561;28;45914;-74
2022/01/06 11:16:04;;;;;;;;;16.00;12.75;;;;;7.54;59.06;101822.03;5055930;28;46054;-73
2022/01/06 11:18:30;;;;;;;;;14.75;12.50;;;;;7.64;58.76;101822.75;5055329;28;45463;-75
2022/01/06 11:21:06;;;;;;;;;17.50;14.75;;;;;7.62;57.77;101822.78;5055628;28;45563;-74
2022/01/06 11:23:32;;;;;;;;;15.50;12.75;;;;;7.27;58.13;101782.44;5054661;28;45466;-75
2022/01/06 11:26:12;;;;;;;;;11.75;11.50;;;;;7.54;59.33;101820.25;5051752;28;45917;-75
2022/01/06 11:28:39;;;;;;;;;14.75;12.00;;;;;7.63;58.77;101811.22;5053923;28;45497;-71
2022/01/06 11:31:22;;;;;;;;;17.50;14.25;;;;;7.74;58.44;101817.22;5036725;28;45363;-77
2022/01/06 11:33:50;;;;;;;;;17.00;14.25;;;;;7.88;58.66;101820.56;5055322;28;45324;-74
2022/01/06 11:36:20;;;;;;;;;16.50;13.25;;;;;7.89;57.08;101806.31;5037087;28;48276;-75
2022/01/06 11:38:48;;;;;;;;;13.00;11.25;;;;;8.07;57.31;101822.91;5055041;28;45252;-74
2022/01/06 11:41:14;;;;;;;;;10.25;8.00;;;;;8.06;56.26;101827.34;5054942;28;45371;-74
2022/01/06 11:43:42;;;;;;;;;10.75;9.25;;;;;7.98;56.27;101822.16;5054681;28;45283;-74
2022/01/06 11:46:08;;;;;;;;;15.00;11.50;;;;;7.86;56.77;101809.00;5055669;28;46265;-77
2022/01/06 11:48:44;;;;;;;;;15.00;12.25;;;;;7.95;56.77;101815.97;5054571;28;45378;-76
2022/01/06 11:51:29;;;;;;;;;13.25;10.50;;;;;8.12;56.05;101818.34;5055115;28;45460;-79
2022/01/06 11:53:55;;;;;;;;;12.50;12.25;;;;;8.12;56.77;101826.34;5054435;28;45347;-77
2022/01/06 11:56:22;;;;;;;;;10.00;8.00;;;;;8.15;57.09;101813.84;5054949;28;45457;-74
2022/01/06 11:59:02;;;;;;;;;6.50;6.50;;;;;8.03;56.48;101800.69;5036299;28;45450;-75
2022/01/06 12:01:28;;;;;;;;;8.75;8.50;;;;;8.19;56.65;101815.53;5036363;28;45392;-72
2022/01/06 12:03:55;;;;;;;;;11.25;7.75;;;;;8.30;56.19;101809.97;5036444;28;46937;-73
2022/01/06 12:06:31;;;;;;;;;3.00;1.00;;;;;8.19;54.96;101796.81;5054546;28;45666;-74
2022/01/06 12:08:57;;;;;;;;;8.00;7.00;;;;;8.09;54.65;101805.03;5054841;28;45447;-74
2022/01/06 12:11:25;;;;;;;;;7.00;3.50;;;;;7.97;54.79;101787.47;5054733;28;45388;-79
2022/01/06 12:13:52;;;;;;;;;16.50;12.00;;;;;8.01;55.68;101794.50;5054494;28;45531;-77
2022/01/06 12:16:25;;;;;;;;;1.00;0.00;;;;;8.09;55.72;101802.34;5054271;28;46023;-73
2022/01/06 12:18:50;;;;;;;;;5.50;5.50;;;;;7.95;55.33;101762.56;5036761;28;45603;-75
2022/01/06 12:21:16;;;;;;;;;7.50;4.25;;;;;8.01;55.12;101772.25;5048669;28;45540;-74
2022/01/06 12:23:41;;;;;;;;;2.75;2.75;;;;;8.00;54.79;101782.03;5052651;28;45646;-73
2022/01/06 12:26:11;;;;;;;;;5.75;5.75;;;;;7.97;55.24;101784.78;5054082;28;45706;-71
2022/01/06 12:28:46;;;;;;;;;6.75;5.00;;;;;8.02;55.06;101768.66;5041793;28;45592;-72
2022/01/06 12:31:14;;;;;;;;;6.00;4.25;;;;;8.14;54.99;101768.44;5035819;28;45531;-72
2022/01/06 12:33:44;;;;;;;;;7.25;5.75;;;;;8.13;55.22;101754.22;5053796;28;45659;-72
2022/01/06 12:36:09;;;;;;;;;5.00;3.75;;;;;8.19;54.04;101762.09;5053384;28;45375;-71
2022/01/06 12:38:37;;;;;;;;;6.75;3.00;;;;;8.17;54.62;101755.91;5054881;28;45272;-72
2022/01/06 12:41:03;;;;;;;;;3.00;2.50;;;;;8.15;55.61;101743.50;5053928;28;45631;-73
2022/01/06 12:43:32;;;;;;;;;6.00;3.75;;;;;8.23;55.17;101754.91;5053408;28;45320;-73
2022/01/06 12:46:08;;;;;;;;;5.00;3.25;;;;;8.11;54.48;101755.16;5054384;28;46130;-74
2022/01/06 12:48:42;;;;;;;;;6.25;3.50;;;;;7.94;55.35;101745.66;5035884;28;45311;-72
2022/01/06 12:51:11;;;;;;;;;4.50;2.50;;;;;7.93;54.77;101751.03;5054017;28;45485;-72
2022/01/06 12:53:42;;;;;;;;;4.50;4.50;;;;;7.88;54.22;101735.13;5054770;28;45556;-72
2022/01/06 12:56:20;;;;;;;;;7.00;4.25;;;;;7.89;54.57;101747.56;5041790;28;45521;-70
2022/01/06 12:58:46;;;;;;;;;10.50;9.25;;;;;7.81;55.16;101730.81;5021075;28;45574;-72
2022/01/06 13:01:12;;;;;;;;;9.00;7.00;;;;;7.73;55.24;101710.50;5053920;28;45847;-71
2022/01/06 13:03:40;;;;;;;;;7.00;6.00;;;;;7.82;54.59;101724.56;5053579;28;45374;-73
2022/01/06 13:06:09;;;;;;;;;6.25;3.00;;;;;7.87;54.45;101727.13;5053684;28;45358;-73
2022/01/06 13:08:55;;;;;;;;;4.25;2.50;;;;;7.88;54.25;101723.56;5053872;28;45454;-73
2022/01/06 13:11:25;;;;;;;;;3.25;2.00;;;;;7.83;54.39;101702.28;5053885;28;45359;-72
2022/01/06 13:13:50;;;;;;;;;4.50;3.00;;;;;7.88;53.83;101719.09;5053683;28;45343;-73
2022/01/06 13:16:20;;;;;;;;;3.50;2.00;;;;;7.89;52.82;101707.50;5053478;28;46093;-71
2022/01/06 13:18:57;;;;;;;;;7.25;3.00;;;;;7.87;52.73;101706.66;5053713;28;45358;-70
2022/01/06 13:21:33;;;;;;;;;7.50;2.25;;;;;7.82;52.59;101711.22;5053582;28;45347;-72
2022/01/06 13:24:20;;;;;;;;;4.75;3.00;;;;;7.62;53.09;101668.00;5053064;28;46102;-72
2022/01/06 13:27:06;;;;;;;;;1.00;1.00;;;;;7.70;52.02;101703.44;5053622;28;45403;-72
2022/01/06 13:29:35;;;;;;;;;3.25;2.75;;;;;7.50;52.14;101677.09;5053467;28;45659;-72
2022/01/06 13:32:13;;;;;;;;;2.50;2.50;;;;;7.74;52.57;101706.94;5053168;28;45473;-71
2022/01/06 13:34:44;;;;;;;;;5.50;2.00;;;;;7.56;52.13;101690.34;5035424;28;45403;-72
2022/01/06 13:37:19;;;;;;;;;7.00;4.25;;;;;7.69;53.13;101704.34;5053324;28;45381;-73
2022/01/06 13:39:52;;;;;;;;;6.00;2.00;;;;;7.78;53.27;101708.63;5053240;28;45443;-71
2022/01/06 13:42:23;;;;;;;;;6.00;2.00;;;;;7.80;52.57;101706.81;5053592;28;45782;-75
2022/01/06 13:44:51;;;;;;;;;7.75;2.75;;;;;7.59;52.76;101676.06;5039825;28;45641;-77
2022/01/06 13:47:33;;;;;;;;;6.00;2.50;;;;;7.77;51.86;101705.06;5052597;28;45959;-77
2022/01/06 13:52:49;;;;;;;;;4.50;3.00;;;;;7.79;51.19;101703.25;5056317;28;45420;-80
2022/01/06 13:55:15;;;;;;;;;6.25;3.00;;;;;7.59;50.16;101666.25;5038541;28;45745;-78
2022/01/06 13:57:41;;;;;;;;;4.25;2.00;;;;;7.79;50.82;101705.94;5056133;28;46069;-77
2022/01/06 14:00:07;;;;;;;;;4.00;2.00;;;;;7.64;50.46;101678.66;5056770;28;45388;-76
2022/01/06 14:02:32;;;;;;;;;2.00;2.00;;;;;7.64;51.31;101673.31;5055669;28;45337;-78
2022/01/06 14:05:06;;;;;;;;;2.75;2.25;;;;;7.85;51.03;101691.56;5059571;28;45587;-76
2022/01/06 14:07:32;;;;;;;;;5.00;1.00;;;;;7.85;50.60;101687.13;5057414;28;45487;-77
2022/01/06 14:09:57;;;;;;;;;5.00;2.00;;;;;7.89;49.59;101696.84;5038609;28;45480;-76
2022/01/06 14:12:22;;;;;;;;;3.00;1.00;;;;;7.89;48.50;101701.28;5056905;28;45377;-78
2022/01/06 14:14:48;;;;;;;;;3.00;1.00;;;;;7.88;48.90;101681.72;5056976;28;45555;-76
2022/01/06 14:17:16;;;;;;;;;4.00;1.50;;;;;7.88;48.39;101678.16;5054267;28;46103;-77
2022/01/06 14:19:41;;;;;;;;;3.50;1.00;;;;;8.03;48.18;101676.97;5037930;28;45452;-73
2022/01/06 14:22:07;;;;;;;;;3.00;2.00;;;;;8.12;47.64;101677.66;5056298;28;45494;-74
2022/01/06 14:24:35;;;;;;;;;2.50;1.75;;;;;7.95;48.41;101621.06;5056243;28;45672;-77
2022/01/06 14:27:02;;;;;;;;;3.00;3.00;;;;;8.61;48.15;101668.59;5056231;28;46112;-81
2022/01/06 14:29:29;;;;;;;;;6.75;3.00;;;;;9.02;46.32;101660.47;5038807;28;45360;-79
2022/01/06 14:31:54;;;;;;;;;6.00;1.50;;;;;9.35;46.66;101636.47;5065812;28;45491;-78
2022/01/06 14:34:20;;;;;;;;;7.00;3.00;;;;;9.95;45.16;101674.06;5056200;28;45516;-76
2022/01/06 14:36:45;;;;;;;;;2.00;2.00;;;;;10.04;44.30;101640.72;5056588;28;45788;-77
2022/01/06 14:39:11;;;;;;;;;2.75;2.00;;;;;10.46;43.35;101660.06;5057704;28;45459;-80
2022/01/06 14:41:36;;;;;;;;;2.00;2.00;;;;;10.29;42.46;101603.41;5059734;28;45789;-77
2022/01/06 14:44:02;;;;;;;;;3.00;3.00;;;;;10.65;42.59;101668.41;5056870;28;45482;-77
2022/01/06 14:46:27;;;;;;;;;4.00;2.50;;;;;10.42;42.58;101659.28;5056906;28;46392;-80
2022/01/06 14:48:52;;;;;;;;;2.75;2.00;;;;;10.15;41.47;101663.63;5055741;28;45388;-76
2022/01/06 14:51:18;;;;;;;;;1.25;1.00;;;;;9.94;41.64;101653.53;5055722;28;45686;-77
2022/01/06 14:53:44;;;;;;;;;3.00;2.00;;;;;9.83;42.12;101631.53;5055496;28;45615;-74
2022/01/06 14:56:09;;;;;;;;;2.50;2.50;;;;;9.84;41.70;101655.59;5055799;28;46187;-76
2022/01/06 14:58:35;;;;;;;;;1.50;1.00;;;;;9.61;41.67;101638.44;5055589;28;45245;-78
2022/01/06 15:01:03;;;;;;;;;2.25;1.25;;;;;9.54;40.92;101671.63;5055791;28;45265;-75
2022/01/06 15:03:29;;;;;;;;;1.00;1.00;;;;;9.39;41.60;101663.09;5054959;28;45466;-74
2022/01/06 15:05:55;;;;;;;;;1.00;1.00;;;;;9.19;42.72;101675.22;5055267;28;45319;-75
2022/01/06 15:08:20;;;;;;;;;3.00;1.00;;;;;9.16;42.40;101683.34;5054886;28;45382;-74
2022/01/06 15:10:46;;;;;;;;;2.00;1.00;;;;;8.89;43.68;101667.03;5055817;28;45481;-75
2022/01/06 15:13:11;;;;;;;;;2.00;2.00;;;;;8.68;43.89;101673.75;5034467;28;46108;-73
2022/01/06 15:15:36;;;;;;;;;3.75;1.00;;;;;8.63;44.64;101680.13;5055361;28;45919;-74
2022/01/06 15:18:02;;;;;;;;;2.75;1.00;;;;;8.45;45.14;101688.56;5055461;28;45402;-78
2022/01/06 15:20:27;;;;;;;;;2.00;2.00;;;;;8.00;46.24;101637.84;5055465;28;45509;-77
2022/01/06 15:22:53;;;;;;;;;1.00;1.00;;;;;8.39;46.49;101692.25;5055293;28;45409;-74
2022/01/06 15:25:18;;;;;;;;;2.00;2.00;;;;;8.31;46.93;101695.09;5034753;28;47147;-75
2022/01/06 15:27:43;;;;;;;;;2.00;2.00;;;;;8.35;47.38;101693.22;5052987;28;45431;-77
2022/01/06 15:30:09;;;;;;;;;2.00;2.00;;;;;8.30;46.58;101693.31;5039235;28;46006;-77
2022/01/06 15:32:36;;;;;;;;;1.75;1.75;;;;;8.01;47.84;101669.00;5061002;28;45596;-77
2022/01/06 15:35:03;;;;;;;;;1.50;1.25;;;;;7.93;48.46;101697.63;5055782;28;45410;-74
2022/01/06 15:37:28;;;;;;;;;2.00;2.00;;;;;7.87;48.79;101677.28;5054799;28;45527;-73
2022/01/06 15:39:53;;;;;;;;;2.25;2.25;;;;;7.99;48.86;101697.53;5055139;28;45414;-75
2022/01/06 15:42:19;;;;;;;;;3.00;3.00;;;;;8.02;48.58;101697.44;5054783;28;45339;-78
2022/01/06 15:44:44;;;;;;;;;3.00;2.00;;;;;8.02;49.30;101710.81;5048952;28;46351;-71
2022/01/06 15:47:09;;;;;;;;;2.00;2.00;;;;;7.98;49.57;101702.00;5047337;28;45211;-71
2022/01/06 15:49:35;;;;;;;;;6.75;3.00;;;;;7.77;49.69;101678.38;5055020;28;45153;-71
2022/01/06 15:52:00;;;;;;;;;3.00;3.00;;;;;7.95;49.91;101702.03;5055108;28;45363;-72
2022/01/06 15:54:26;;;;;;;;;3.75;1.00;;;;;7.81;50.12;101704.13;5054260;28;46128;-72
2022/01/06 15:56:51;;;;;;;;;3.25;2.00;;;;;7.75;50.47;101703.31;5054854;28;45606;-70
2022/01/06 15:59:22;;;;;;;;;3.25;2.00;;;;;7.74;50.41;101712.28;5054314;28;45430;-71
2022/01/06 16:07:23;;;;;;;;;10.00;3.00;;;;;7.37;50.80;101709.38;5054042;28;45480;-73
2022/01/06 16:09:49;;;;;;;;;3.50;2.50;;;;;7.37;51.42;101715.59;5053818;28;45450;-73
2022/01/06 16:12:15;;;;;;;;;6.25;2.25;;;;;7.36;51.71;101704.94;5054020;28;45518;-72
2022/01/06 16:14:40;;;;;;;;;3.00;1.75;;;;;7.32;51.32;101697.88;5054382;28;45327;-70
2022/01/06 16:17:06;;;;;;;;;6.75;3.00;;;;;7.40;51.43;101706.66;5052727;28;45355;-71
2022/01/06 16:19:32;;;;;;;;;3.75;3.00;;;;;7.38;52.25;101711.13;5054565;28;45402;-73
2022/01/06 16:21:57;;;;;;;;;7.25;2.75;;;;;7.40;52.03;101704.00;5054441;28;45205;-71
2022/01/06 16:24:23;;;;;;;;;4.25;3.00;;;;;7.41;52.13;101703.94;5053707;28;45846;-69
2022/01/06 16:26:48;;;;;;;;;6.25;4.25;;;;;7.39;52.69;101705.78;5054430;28;45269;-71
2022/01/06 16:29:15;;;;;;;;;7.00;5.25;;;;;7.36;52.30;101702.28;5054815;28;45303;-69
2022/01/06 16:31:47;;;;;;;;;4.75;3.00;;;;;7.24;52.58;101690.03;5063718;28;45518;-70
2022/01/06 16:34:13;;;;;;;;;5.50;2.50;;;;;7.31;52.79;101712.16;5037000;28;45447;-72
2022/01/06 16:36:39;;;;;;;;;5.00;5.00;;;;;7.31;52.92;101712.16;5054428;28;45381;-69
2022/01/06 16:39:06;;;;;;;;;4.25;4.25;;;;;7.21;53.12;101714.09;5054396;28;45367;-70
2022/01/06 16:41:32;;;;;;;;;5.00;5.00;;;;;7.21;52.70;101714.09;5053206;28;45559;-70
2022/01/06 16:44:00;;;;;;;;;5.50;5.50;;;;;7.21;53.00;101714.97;5055146;28;46349;-73
2022/01/06 16:46:25;;;;;;;;;7.50;6.00;;;;;7.28;52.77;101733.53;5050666;28;45390;-71
2022/01/06 16:48:51;;;;;;;;;9.50;5.75;;;;;7.12;53.46;101711.56;5053694;28;45426;-73
2022/01/06 16:51:21;;;;;;;;;6.50;6.25;;;;;7.06;53.76;101706.34;5053722;28;45366;-70
2022/01/06 16:53:47;;;;;;;;;10.25;7.00;;;;;7.15;53.92;101730.16;5053328;28;47039;-72
2022/01/06 16:56:13;;;;;;;;;8.50;7.00;;;;;6.98;54.11;101705.56;5053809;28;45484;-72
2022/01/06 16:58:38;;;;;;;;;6.25;5.25;;;;;7.09;54.70;101730.28;5053882;28;45447;-70
2022/01/06 17:01:04;;;;;;;;;9.75;7.25;;;;;6.99;54.66;101705.53;5053463;28;45390;-71
2022/01/06 17:03:29;;;;;;;;;8.50;6.75;;;;;7.14;54.39;101732.00;5053649;28;45292;-72
2022/01/06 17:05:55;;;;;;;;;10.25;7.00;;;;;7.16;54.27;101719.47;5055039;28;45359;-74